<?xml version="1.0" encoding="UTF-8" standalone="no" ?>
<gpx xmlns="http://www.topografix.com/GPX/1/1" xmlns:xsi="http://www.w3.org/2001/XMLSchema-instance" xsi:schemaLocation="http://www.topografix.com/GPX/1/1 http://www.topografix.com/GPX/1/1/gpx.xsd" version="1.1" creator="VisuGPX - https://www.visugpx.com">
  <metadata>
    <name>Les Fontaines</name>
    <desc><![CDATA[Balade entre Blangy-Tronville et Daours, en suivant la somme et les hautes terres.]]></desc>
  </metadata>
  <trk>
    <name><![CDATA[OR-7978869--Blangy-Tronville:les fontaines]]></name>
    <trkseg>
      <trkpt lat="49.88441" lon="2.42186">
        <ele>26</ele>
        <time>2017-10-05T00:32:44Z</time>
      </trkpt>
      <trkpt lat="49.88438" lon="2.42156">
        <ele>25</ele>
        <time>2017-10-05T00:34:44Z</time>
      </trkpt>
      <trkpt lat="49.88408" lon="2.42151">
        <ele>25</ele>
        <time>2017-10-05T00:36:44Z</time>
      </trkpt>
      <trkpt lat="49.88348" lon="2.42152">
        <ele>25</ele>
        <time>2017-10-05T00:38:44Z</time>
      </trkpt>
      <trkpt lat="49.88213" lon="2.4216">
        <ele>25</ele>
        <time>2017-10-05T00:40:44Z</time>
      </trkpt>
      <trkpt lat="49.88161" lon="2.42171">
        <ele>27</ele>
        <time>2017-10-05T00:42:44Z</time>
      </trkpt>
      <trkpt lat="49.88058" lon="2.42191">
        <ele>31</ele>
        <time>2017-10-05T00:44:44Z</time>
      </trkpt>
      <trkpt lat="49.8804" lon="2.42243">
        <ele>31</ele>
        <time>2017-10-05T00:46:44Z</time>
      </trkpt>
      <trkpt lat="49.88019" lon="2.42325">
        <ele>30</ele>
        <time>2017-10-05T00:48:44Z</time>
      </trkpt>
      <trkpt lat="49.88011" lon="2.42422">
        <ele>31</ele>
        <time>2017-10-05T00:50:44Z</time>
      </trkpt>
      <trkpt lat="49.87997" lon="2.42609">
        <ele>36</ele>
        <time>2017-10-05T00:52:44Z</time>
      </trkpt>
      <trkpt lat="49.87969" lon="2.42901">
        <ele>40</ele>
        <time>2017-10-05T00:54:44Z</time>
      </trkpt>
      <trkpt lat="49.87952" lon="2.42993">
        <ele>40</ele>
        <time>2017-10-05T00:56:44Z</time>
      </trkpt>
      <trkpt lat="49.87905" lon="2.43152">
        <ele>46</ele>
        <time>2017-10-05T00:58:44Z</time>
      </trkpt>
      <trkpt lat="49.87876" lon="2.43232">
        <ele>49</ele>
        <time>2017-10-05T01:00:44Z</time>
      </trkpt>
      <trkpt lat="49.87895" lon="2.43393">
        <ele>48</ele>
        <time>2017-10-05T01:02:44Z</time>
      </trkpt>
      <trkpt lat="49.87929" lon="2.43824">
        <ele>43</ele>
        <time>2017-10-05T01:04:44Z</time>
      </trkpt>
      <trkpt lat="49.87829" lon="2.44004">
        <ele>43</ele>
        <time>2017-10-05T01:06:44Z</time>
      </trkpt>
      <trkpt lat="49.87754" lon="2.44244">
        <ele>44</ele>
        <time>2017-10-05T01:08:44Z</time>
      </trkpt>
      <trkpt lat="49.87685" lon="2.44403">
        <ele>47</ele>
        <time>2017-10-05T01:10:44Z</time>
      </trkpt>
      <trkpt lat="49.87541" lon="2.44579">
        <ele>55</ele>
        <time>2017-10-05T01:12:44Z</time>
      </trkpt>
      <trkpt lat="49.87707" lon="2.45416">
        <ele>49</ele>
        <time>2017-10-05T01:14:44Z</time>
      </trkpt>
      <trkpt lat="49.8789" lon="2.46622">
        <ele>40</ele>
        <time>2017-10-05T01:16:44Z</time>
      </trkpt>
      <trkpt lat="49.87973" lon="2.46686">
        <ele>40</ele>
        <time>2017-10-05T01:18:44Z</time>
      </trkpt>
      <trkpt lat="49.88292" lon="2.46785">
        <ele>41</ele>
        <time>2017-10-05T01:20:44Z</time>
      </trkpt>
      <trkpt lat="49.88375" lon="2.468">
        <ele>41</ele>
        <time>2017-10-05T01:22:44Z</time>
      </trkpt>
      <trkpt lat="49.88348" lon="2.46622">
        <ele>36</ele>
        <time>2017-10-05T01:24:44Z</time>
      </trkpt>
      <trkpt lat="49.8854" lon="2.46448">
        <ele>34</ele>
        <time>2017-10-05T01:26:44Z</time>
      </trkpt>
      <trkpt lat="49.88653" lon="2.46412">
        <ele>35</ele>
        <time>2017-10-05T01:28:44Z</time>
      </trkpt>
      <trkpt lat="49.88746" lon="2.46337">
        <ele>37</ele>
        <time>2017-10-05T01:30:44Z</time>
      </trkpt>
      <trkpt lat="49.88938" lon="2.46201">
        <ele>39</ele>
        <time>2017-10-05T01:32:44Z</time>
      </trkpt>
      <trkpt lat="49.89082" lon="2.46124">
        <ele>37</ele>
        <time>2017-10-05T01:34:44Z</time>
      </trkpt>
      <trkpt lat="49.89256" lon="2.46047">
        <ele>39</ele>
        <time>2017-10-05T01:36:44Z</time>
      </trkpt>
      <trkpt lat="49.89767" lon="2.45888">
        <ele>33</ele>
        <time>2017-10-05T01:38:44Z</time>
      </trkpt>
      <trkpt lat="49.89894" lon="2.45897">
        <ele>32</ele>
        <time>2017-10-05T01:40:44Z</time>
      </trkpt>
      <trkpt lat="49.89944" lon="2.45841">
        <ele>32</ele>
        <time>2017-10-05T01:42:44Z</time>
      </trkpt>
      <trkpt lat="49.90105" lon="2.45794">
        <ele>30</ele>
        <time>2017-10-05T01:44:44Z</time>
      </trkpt>
      <trkpt lat="49.90199" lon="2.45759">
        <ele>30</ele>
        <time>2017-10-05T01:46:44Z</time>
      </trkpt>
      <trkpt lat="49.90259" lon="2.45708">
        <ele>31</ele>
        <time>2017-10-05T01:48:44Z</time>
      </trkpt>
      <trkpt lat="49.90257" lon="2.45635">
        <ele>31</ele>
        <time>2017-10-05T01:50:44Z</time>
      </trkpt>
      <trkpt lat="49.90183" lon="2.45624">
        <ele>31</ele>
        <time>2017-10-05T01:52:44Z</time>
      </trkpt>
      <trkpt lat="49.89915" lon="2.45577">
        <ele>28</ele>
        <time>2017-10-05T01:54:44Z</time>
      </trkpt>
      <trkpt lat="49.89848" lon="2.45549">
        <ele>27</ele>
        <time>2017-10-05T01:56:44Z</time>
      </trkpt>
      <trkpt lat="49.89745" lon="2.45508">
        <ele>26</ele>
        <time>2017-10-05T01:58:44Z</time>
      </trkpt>
      <trkpt lat="49.8966" lon="2.45446">
        <ele>26</ele>
        <time>2017-10-05T02:00:44Z</time>
      </trkpt>
      <trkpt lat="49.89613" lon="2.45416">
        <ele>27</ele>
        <time>2017-10-05T02:02:44Z</time>
      </trkpt>
      <trkpt lat="49.89549" lon="2.45442">
        <ele>27</ele>
        <time>2017-10-05T02:04:44Z</time>
      </trkpt>
      <trkpt lat="49.89498" lon="2.45431">
        <ele>27</ele>
        <time>2017-10-05T02:06:44Z</time>
      </trkpt>
      <trkpt lat="49.89328" lon="2.4521">
        <ele>28</ele>
        <time>2017-10-05T02:08:44Z</time>
      </trkpt>
      <trkpt lat="49.89264" lon="2.4521">
        <ele>27</ele>
        <time>2017-10-05T02:10:44Z</time>
      </trkpt>
      <trkpt lat="49.89162" lon="2.45242">
        <ele>29</ele>
        <time>2017-10-05T02:12:44Z</time>
      </trkpt>
      <trkpt lat="49.89098" lon="2.45251">
        <ele>28</ele>
        <time>2017-10-05T02:14:44Z</time>
      </trkpt>
      <trkpt lat="49.8906" lon="2.45249">
        <ele>29</ele>
        <time>2017-10-05T02:16:44Z</time>
      </trkpt>
      <trkpt lat="49.89013" lon="2.45169">
        <ele>31</ele>
        <time>2017-10-05T02:18:44Z</time>
      </trkpt>
      <trkpt lat="49.88996" lon="2.45122">
        <ele>30</ele>
        <time>2017-10-05T02:20:44Z</time>
      </trkpt>
      <trkpt lat="49.88878" lon="2.45081">
        <ele>28</ele>
        <time>2017-10-05T02:22:44Z</time>
      </trkpt>
      <trkpt lat="49.88841" lon="2.45043">
        <ele>28</ele>
        <time>2017-10-05T02:24:44Z</time>
      </trkpt>
      <trkpt lat="49.88778" lon="2.44963">
        <ele>27</ele>
        <time>2017-10-05T02:26:44Z</time>
      </trkpt>
      <trkpt lat="49.88703" lon="2.44948">
        <ele>27</ele>
        <time>2017-10-05T02:28:44Z</time>
      </trkpt>
      <trkpt lat="49.88645" lon="2.44935">
        <ele>27</ele>
        <time>2017-10-05T02:30:44Z</time>
      </trkpt>
      <trkpt lat="49.88592" lon="2.44873">
        <ele>26</ele>
        <time>2017-10-05T02:32:44Z</time>
      </trkpt>
      <trkpt lat="49.88563" lon="2.44826">
        <ele>26</ele>
        <time>2017-10-05T02:34:44Z</time>
      </trkpt>
      <trkpt lat="49.88558" lon="2.44682">
        <ele>26</ele>
        <time>2017-10-05T02:36:44Z</time>
      </trkpt>
      <trkpt lat="49.88561" lon="2.44435">
        <ele>25</ele>
        <time>2017-10-05T02:38:44Z</time>
      </trkpt>
      <trkpt lat="49.88549" lon="2.44253">
        <ele>25</ele>
        <time>2017-10-05T02:40:44Z</time>
      </trkpt>
      <trkpt lat="49.88505" lon="2.44023">
        <ele>23</ele>
        <time>2017-10-05T02:42:44Z</time>
      </trkpt>
      <trkpt lat="49.8849" lon="2.438">
        <ele>26</ele>
        <time>2017-10-05T02:44:44Z</time>
      </trkpt>
      <trkpt lat="49.88494" lon="2.43629">
        <ele>28</ele>
        <time>2017-10-05T02:46:44Z</time>
      </trkpt>
      <trkpt lat="49.88504" lon="2.43399">
        <ele>27</ele>
        <time>2017-10-05T02:48:44Z</time>
      </trkpt>
      <trkpt lat="49.88493" lon="2.43292">
        <ele>27</ele>
        <time>2017-10-05T02:50:44Z</time>
      </trkpt>
      <trkpt lat="49.88464" lon="2.43197">
        <ele>28</ele>
        <time>2017-10-05T02:52:44Z</time>
      </trkpt>
      <trkpt lat="49.88408" lon="2.43109">
        <ele>26</ele>
        <time>2017-10-05T02:54:44Z</time>
      </trkpt>
      <trkpt lat="49.88372" lon="2.43028">
        <ele>25</ele>
        <time>2017-10-05T02:56:44Z</time>
      </trkpt>
      <trkpt lat="49.88392" lon="2.42942">
        <ele>26</ele>
        <time>2017-10-05T02:58:44Z</time>
      </trkpt>
      <trkpt lat="49.88424" lon="2.42863">
        <ele>26</ele>
        <time>2017-10-05T03:00:44Z</time>
      </trkpt>
      <trkpt lat="49.88442" lon="2.4277">
        <ele>27</ele>
        <time>2017-10-05T03:02:44Z</time>
      </trkpt>
      <trkpt lat="49.88464" lon="2.4247">
        <ele>26</ele>
        <time>2017-10-05T03:04:44Z</time>
      </trkpt>
      <trkpt lat="49.88461" lon="2.42328">
        <ele>27</ele>
        <time>2017-10-05T03:06:44Z</time>
      </trkpt>
      <trkpt lat="49.88449" lon="2.42184">
        <ele>26</ele>
        <time>2017-10-05T03:08:44Z</time>
      </trkpt>
      <trkpt lat="49.88444" lon="2.42164">
        <ele>25</ele>
        <time>2017-10-05T03:10:44Z</time>
      </trkpt>
      <trkpt lat="49.88437" lon="2.42174">
        <ele>25</ele>
        <time>2017-10-05T03:12:44Z</time>
      </trkpt>
    </trkseg>
  </trk>
</gpx>